Time;durP1;ratioP1;P1;durP2;ratioP2;P2;SDS_P1;SDS_P2;PMS_P1;PMS_P2;Temp;Humidity;BMP_temperature;BMP_pressure;BME280_temperature;BME280_humidity;BME280_pressure;Samples;Min_cycle;Max_cycle;Signal;HPM_P1;HPM_P2
2023/11/19 00:02:13;;;;;;;29.87;18.60;;;;;;;5.14;nan;100711.72;5015597;28;101232;-73
2023/11/19 00:04:39;;;;;;;32.00;19.43;;;;;;;5.14;nan;100703.91;5030239;27;97992;-73
2023/11/19 00:07:06;;;;;;;29.67;18.57;;;;;;;5.10;nan;100708.28;5029859;27;96715;-73
2023/11/19 00:09:37;;;;;;;31.20;20.03;;;;;;;4.77;nan;100657.28;5037135;27;96835;-73
2023/11/19 00:12:06;;;;;;;31.90;19.73;;;;;;;4.71;nan;100659.88;5024008;27;101298;-73
2023/11/19 00:14:32;;;;;;;31.20;19.83;;;;;;;4.66;nan;100670.34;5033034;27;97381;-74
2023/11/19 00:16:57;;;;;;;32.03;20.33;;;;;;;4.54;nan;100665.19;5022172;28;97316;-73
2023/11/19 00:19:23;;;;;;;35.20;19.87;;;;;;;4.28;nan;100639.28;5013943;27;96961;-75
2023/11/19 00:21:48;;;;;;;32.40;20.53;;;;;;;4.37;nan;100638.38;5053460;27;97363;-73
2023/11/19 00:24:16;;;;;;;34.23;19.40;;;;;;;4.29;nan;100656.59;5018106;27;100057;-75
2023/11/19 00:26:42;;;;;;;31.00;19.37;;;;;;;4.35;nan;100633.19;5037030;27;96768;-72
2023/11/19 00:29:07;;;;;;;33.70;19.90;;;;;;;4.13;nan;100608.13;5037439;27;97514;-74
2023/11/19 00:31:33;;;;;;;32.10;20.00;;;;;;;4.26;nan;100635.81;5035683;27;97875;-74
2023/11/19 00:33:58;;;;;;;33.23;20.33;;;;;;;4.24;nan;100625.41;5058945;27;97898;-73
2023/11/19 00:36:25;;;;;;;31.80;20.40;;;;;;;4.41;nan;100633.16;5022124;27;97185;-73
2023/11/19 00:38:52;;;;;;;40.33;21.17;;;;;;;4.35;nan;100624.53;5058956;27;96749;-77
2023/11/19 00:41:18;;;;;;;35.47;21.60;;;;;;;3.92;nan;100583.06;5034324;27;98173;-73
2023/11/19 00:43:44;;;;;;;29.90;19.10;;;;;;;4.43;nan;100638.38;5003255;27;99804;-74
2023/11/19 00:46:16;;;;;;;32.60;20.20;;;;;;;4.33;nan;100614.13;5014660;28;96767;-73
2023/11/19 00:48:42;;;;;;;31.60;20.38;;;;;;;4.26;nan;100583.84;5046108;27;96806;-73
2023/11/19 00:51:07;;;;;;;31.80;21.57;;;;;;;4.38;nan;100585.53;5050486;27;97870;-73
2023/11/19 00:53:36;;;;;;;32.37;21.40;;;;;;;4.34;nan;100570.81;5064497;27;97508;-73
2023/11/19 00:56:02;;;;;;;34.33;21.13;;;;;;;4.23;nan;100553.53;5026558;27;96769;-73
2023/11/19 00:58:27;;;;;;;35.50;23.17;;;;;;;4.39;nan;100595.03;5029195;27;97939;-73
2023/11/19 01:00:53;;;;;;;35.17;21.77;;;;;;;4.07;nan;100560.53;5018603;28;100633;-72
2023/11/19 01:03:18;;;;;;;34.30;20.93;;;;;;;4.18;nan;100573.47;5025810;27;97357;-73
2023/11/19 01:05:44;;;;;;;30.40;21.20;;;;;;;4.27;nan;100563.03;5024075;28;97163;-73
2023/11/19 01:08:10;;;;;;;33.73;21.67;;;;;;;4.39;nan;100559.50;5019018;27;96846;-73
2023/11/19 01:10:39;;;;;;;39.40;23.10;;;;;;;4.24;nan;100544.84;5045938;27;98563;-73
2023/11/19 01:13:08;;;;;;;34.07;20.97;;;;;;;4.05;nan;100536.28;5003130;27;101198;-73
2023/11/19 01:15:34;;;;;;;36.17;21.63;;;;;;;4.10;nan;100525.84;5038239;27;96851;-75
2023/11/19 01:18:00;;;;;;;33.77;20.97;;;;;;;4.12;nan;100498.13;5000840;27;97371;-73
2023/11/19 01:20:26;;;;;;;31.10;20.60;;;;;;;4.15;nan;100492.06;5045182;27;97496;-73
2023/11/19 01:22:51;;;;;;;32.30;20.40;;;;;;;4.34;nan;100505.84;5028980;27;97252;-73
2023/11/19 01:25:17;;;;;;;33.10;19.97;;;;;;;4.21;nan;100479.91;5015929;28;97207;-74
2023/11/19 01:27:44;;;;;;;33.23;21.83;;;;;;;4.02;nan;100466.16;5039185;27;97187;-76
2023/11/19 01:30:12;;;;;;;34.50;22.50;;;;;;;4.40;nan;100493.66;5027292;27;101341;-73
2023/11/19 01:32:38;;;;;;;36.57;22.13;;;;;;;4.18;nan;100487.72;5033625;27;101566;-74
2023/11/19 01:35:04;;;;;;;35.10;21.67;;;;;;;3.98;nan;100458.38;5045758;27;97227;-73
2023/11/19 01:37:31;;;;;;;33.67;22.10;;;;;;;3.86;nan;100462.75;5026271;27;96888;-73
2023/11/19 01:39:57;;;;;;;34.37;21.93;;;;;;;3.88;nan;100467.09;5038889;27;99831;-73
2023/11/19 01:42:25;;;;;;;37.77;22.53;;;;;;;3.72;nan;100441.16;5032825;27;101121;-74
2023/11/19 01:45:00;;;;;;;33.77;20.67;;;;;;;3.96;nan;100475.72;5026647;27;96794;-73
2023/11/19 01:47:27;;;;;;;30.33;20.53;;;;;;;3.97;nan;100473.09;5043587;27;96772;-73
2023/11/19 01:49:52;;;;;;;35.87;21.77;;;;;;;4.02;nan;100479.16;5006545;27;97829;-72
2023/11/19 01:52:18;;;;;;;30.70;20.40;;;;;;;4.08;nan;100476.50;5027321;27;101444;-75
2023/11/19 01:54:45;;;;;;;35.73;20.87;;;;;;;3.96;nan;100457.53;5028997;27;97979;-75
2023/11/19 01:57:12;;;;;;;37.27;21.80;;;;;;;3.97;nan;100444.53;5052499;27;96853;-73
2023/11/19 01:59:38;;;;;;;36.30;22.43;;;;;;;4.11;nan;100443.59;5021520;27;100766;-73
2023/11/19 02:02:05;;;;;;;35.43;21.63;;;;;;;3.98;nan;100445.38;5021659;27;100798;-73
2023/11/19 02:04:31;;;;;;;30.27;20.70;;;;;;;3.97;nan;100408.16;5017008;28;96818;-73
2023/11/19 02:06:58;;;;;;;34.77;23.07;;;;;;;4.22;nan;100437.47;5016993;27;96797;-73
2023/11/19 02:09:23;;;;;;;32.83;19.90;;;;;;;3.91;nan;100425.53;5016958;27;97447;-72
2023/11/19 02:11:51;;;;;;;34.17;19.90;;;;;;;4.06;nan;100449.66;5035328;27;101100;-77
2023/11/19 02:14:17;;;;;;;38.03;20.70;;;;;;;4.08;nan;100436.69;5041729;27;97208;-73
2023/11/19 02:16:43;;;;;;;35.67;23.13;;;;;;;4.06;nan;100431.47;5028495;27;96906;-74
2023/11/19 02:19:10;;;;;;;29.97;20.67;;;;;;;3.93;nan;100426.38;5039884;27;97413;-75
2023/11/19 02:21:36;;;;;;;37.13;21.70;;;;;;;3.85;nan;100416.88;5024257;28;101469;-73
2023/11/19 02:24:06;;;;;;;31.27;20.13;;;;;;;3.90;nan;100426.38;4999911;28;97300;-73
2023/11/19 02:26:57;;;;;;;30.80;21.57;;;;;;;3.64;nan;100393.63;5028909;27;96795;-73
2023/11/19 02:29:22;;;;;;;35.03;21.57;;;;;;;3.73;nan;100400.50;5050573;27;98933;-73
2023/11/19 02:31:48;;;;;;;34.83;22.17;;;;;;;3.84;nan;100399.59;5046530;27;97958;-73
2023/11/19 02:34:13;;;;;;;35.67;22.90;;;;;;;4.08;nan;100403.78;5030969;27;98171;-73
2023/11/19 02:36:41;;;;;;;32.17;20.47;;;;;;;3.90;nan;100379.63;5051202;27;96805;-73
2023/11/19 02:39:10;;;;;;;32.23;21.13;;;;;;;3.93;nan;100388.28;5040227;27;97406;-72
2023/11/19 02:41:36;;;;;;;31.97;20.13;;;;;;;4.00;nan;100381.31;5004886;27;101042;-73
2023/11/19 02:44:01;;;;;;;37.70;20.03;;;;;;;3.96;nan;100390.88;5051490;27;96736;-73
2023/11/19 02:46:27;;;;;;;34.83;20.73;;;;;;;3.92;nan;100373.56;5016679;27;96864;-73
2023/11/19 02:48:52;;;;;;;38.13;20.87;;;;;;;4.12;nan;100386.41;5013304;28;101306;-73
2023/11/19 02:51:18;;;;;;;36.07;20.63;;;;;;;4.25;nan;100400.22;5040493;27;101218;-73
2023/11/19 02:53:44;;;;;;;32.27;20.20;;;;;;;4.14;nan;100397.69;5024568;27;97386;-73
2023/11/19 02:56:19;;;;;;;34.07;23.13;;;;;;;3.65;nan;100343.41;5053409;27;97197;-73
2023/11/19 02:58:46;;;;;;;36.67;21.60;;;;;;;3.86;nan;100371.84;5025497;27;97653;-73
2023/11/19 03:01:22;;;;;;;35.40;21.20;;;;;;;3.73;nan;100353.78;5016474;27;101219;-73
2023/11/19 03:03:53;;;;;;;32.30;21.10;;;;;;;3.69;nan;100350.31;5022895;27;96973;-73
2023/11/19 03:06:19;;;;;;;32.10;21.30;;;;;;;3.57;nan;100324.41;5019818;27;97292;-76
2023/11/19 03:08:44;;;;;;;37.37;23.23;;;;;;;3.58;nan;100308.00;5035329;27;100906;-73
2023/11/19 03:11:10;;;;;;;34.27;22.40;;;;;;;3.53;nan;100312.34;5018883;27;101190;-73
2023/11/19 03:13:35;;;;;;;34.67;21.80;;;;;;;3.62;nan;100326.13;5034290;27;96748;-73
2023/11/19 03:16:01;;;;;;;37.40;23.13;;;;;;;3.53;nan;100307.16;5041830;27;96801;-73
2023/11/19 03:18:28;;;;;;;33.17;21.50;;;;;;;3.51;nan;100319.28;5036823;27;97927;-73
2023/11/19 03:20:53;;;;;;;36.30;23.77;;;;;;;3.43;nan;100308.06;5018465;27;101485;-73
2023/11/19 03:23:19;;;;;;;35.33;22.83;;;;;;;3.51;nan;100311.47;5045123;27;97059;-73
2023/11/19 03:25:45;;;;;;;38.77;23.33;;;;;;;3.47;nan;100314.97;5044035;27;97293;-73
2023/11/19 03:28:11;;;;;;;35.90;22.53;;;;;;;3.42;nan;100309.78;5062636;27;97335;-77
2023/11/19 03:30:36;;;;;;;33.20;21.53;;;;;;;3.57;nan;100308.84;5023606;27;97353;-73
2023/11/19 03:33:02;;;;;;;34.73;21.30;;;;;;;3.60;nan;100301.91;5034039;27;97271;-73
2023/11/19 03:35:28;;;;;;;35.73;21.63;;;;;;;3.58;nan;100308.00;5024685;27;96949;-73
2023/11/19 03:37:53;;;;;;;35.77;22.87;;;;;;;3.52;nan;100293.31;5023755;27;101236;-73
2023/11/19 03:40:19;;;;;;;41.77;23.70;;;;;;;3.67;nan;100294.97;5015012;27;100949;-73
2023/11/19 03:42:45;;;;;;;36.87;22.77;;;;;;;3.75;nan;100289.69;5048386;27;97634;-73
2023/11/19 03:45:11;;;;;;;33.70;21.27;;;;;;;3.80;nan;100282.75;5047343;27;96765;-74
2023/11/19 03:47:37;;;;;;;37.73;22.83;;;;;;;3.84;nan;100279.28;5047655;27;97904;-72
2023/11/19 03:50:04;;;;;;;35.80;22.00;;;;;;;3.69;nan;100264.63;5015665;27;98083;-73
2023/11/19 03:52:29;;;;;;;34.47;20.83;;;;;;;3.82;nan;100270.63;5040496;27;96780;-73
2023/11/19 03:54:56;;;;;;;37.20;20.60;;;;;;;3.83;nan;100259.34;5019227;27;97506;-73
2023/11/19 03:57:21;;;;;;;36.13;21.27;;;;;;;4.01;nan;100253.16;5048552;27;98030;-73
2023/11/19 03:59:47;;;;;;;34.30;21.30;;;;;;;3.92;nan;100232.44;5045208;27;98409;-76
2023/11/19 04:02:13;;;;;;;34.60;22.07;;;;;;;3.90;nan;100229.00;5058713;27;96833;-74
2023/11/19 04:04:39;;;;;;;35.17;21.60;;;;;;;3.87;nan;100229.91;5037779;27;96884;-73
2023/11/19 04:07:05;;;;;;;37.87;22.00;;;;;;;3.92;nan;100241.09;5014016;28;100512;-73
2023/11/19 04:09:32;;;;;;;36.17;21.70;;;;;;;3.67;nan;100237.00;5012190;27;101248;-76
2023/11/19 04:11:58;;;;;;;34.17;21.37;;;;;;;3.69;nan;100232.63;5020587;27;97973;-73
2023/11/19 04:14:24;;;;;;;33.60;21.70;;;;;;;3.51;nan;100213.72;5035432;27;97264;-73
2023/11/19 04:16:50;;;;;;;30.13;20.57;;;;;;;3.55;nan;100210.25;5035649;27;97685;-73
2023/11/19 04:19:16;;;;;;;32.90;20.33;;;;;;;3.65;nan;100190.25;5014591;27;101700;-73
2023/11/19 04:21:42;;;;;;;31.97;21.00;;;;;;;3.67;nan;100192.84;5016461;27;96847;-73
2023/11/19 04:24:09;;;;;;;34.97;20.67;;;;;;;3.61;nan;100176.44;5037269;27;97186;-73
2023/11/19 04:26:34;;;;;;;31.13;20.27;;;;;;;3.38;nan;100134.25;5014392;28;100137;-73
2023/11/19 04:29:00;;;;;;;29.43;20.10;;;;;;;3.61;nan;100145.28;5028907;27;101216;-73
2023/11/19 04:31:31;;;;;;;30.40;19.97;;;;;;;3.51;nan;100114.22;5047847;27;98655;-75
2023/11/19 04:33:57;;;;;;;30.33;19.50;;;;;;;3.66;nan;100132.25;5037109;27;96769;-73
2023/11/19 04:36:24;;;;;;;32.67;20.40;;;;;;;3.56;nan;100134.09;5020397;28;101129;-73
2023/11/19 04:38:50;;;;;;;28.97;18.97;;;;;;;3.55;nan;100100.34;5029326;27;97666;-73
2023/11/19 04:41:16;;;;;;;32.90;20.10;;;;;;;3.66;nan;100111.50;5020928;27;96713;-77
2023/11/19 04:43:41;;;;;;;29.30;18.17;;;;;;;3.73;nan;100113.16;5023711;27;96826;-74
2023/11/19 04:46:07;;;;;;;26.93;17.87;;;;;;;3.75;nan;100123.53;5012030;27;97406;-73
2023/11/19 04:48:32;;;;;;;28.87;18.70;;;;;;;3.80;nan;100116.56;5058965;27;97829;-73
2023/11/19 04:50:58;;;;;;;32.17;20.17;;;;;;;3.58;nan;100108.97;5029336;27;96782;-73
2023/11/19 04:53:23;;;;;;;28.40;17.60;;;;;;;3.50;nan;100092.59;5042592;27;97231;-73
2023/11/19 04:55:48;;;;;;;28.27;18.00;;;;;;;3.69;nan;100115.78;5045006;27;97381;-73
2023/11/19 04:58:14;;;;;;;30.77;19.77;;;;;;;3.53;nan;100099.50;5042391;27;97299;-73
2023/11/19 05:00:39;;;;;;;29.73;18.27;;;;;;;3.56;nan;100084.75;5062479;27;96695;-73
2023/11/19 05:03:05;;;;;;;27.67;17.30;;;;;;;3.67;nan;100102.84;5037844;27;96931;-73
2023/11/19 05:05:30;;;;;;;25.53;16.90;;;;;;;3.68;nan;100099.38;5065971;27;97553;-73
2023/11/19 05:07:56;;;;;;;28.30;17.27;;;;;;;3.77;nan;100098.41;5047677;27;97317;-75
2023/11/19 05:10:22;;;;;;;26.77;16.67;;;;;;;3.57;nan;100064.84;5028022;27;96780;-73
2023/11/19 05:12:47;;;;;;;23.33;16.07;;;;;;;3.61;nan;100059.63;5026874;27;96759;-73
2023/11/19 05:15:14;;;;;;;26.73;16.67;;;;;;;3.83;nan;100072.38;4985937;28;101286;-73
2023/11/19 05:17:40;;;;;;;22.20;15.07;;;;;;;3.55;nan;100053.63;5018139;27;96766;-72
2023/11/19 05:20:13;;;;;;;25.47;16.60;;;;;;;3.72;nan;100062.09;5008519;28;97411;-73
2023/11/19 05:22:42;;;;;;;28.37;16.47;;;;;;;3.72;nan;100049.13;5027561;27;96794;-73
2023/11/19 05:25:08;;;;;;;29.27;16.80;;;;;;;3.81;nan;100051.66;5017710;28;101091;-73
2023/11/19 05:27:35;;;;;;;24.43;16.40;;;;;;;3.74;nan;100029.19;5049494;27;97522;-73
2023/11/19 05:30:02;;;;;;;24.93;15.73;;;;;;;3.81;nan;100049.03;5022462;28;96739;-73
2023/11/19 05:32:28;;;;;;;25.40;15.77;;;;;;;3.75;nan;100043.03;5041640;27;97219;-73
2023/11/19 05:34:53;;;;;;;23.50;15.63;;;;;;;3.46;nan;99988.84;5046553;27;97393;-72
2023/11/19 05:37:19;;;;;;;23.37;15.33;;;;;;;3.72;nan;100022.31;5024336;27;101474;-73
2023/11/19 05:39:45;;;;;;;24.60;16.07;;;;;;;3.71;nan;100031.84;5030050;27;97173;-73
2023/11/19 05:42:10;;;;;;;23.37;15.13;;;;;;;3.67;nan;100027.56;5044715;27;97005;-73
2023/11/19 05:44:37;;;;;;;22.90;15.43;;;;;;;3.76;nan;100029.19;5024549;27;97913;-73
2023/11/19 05:47:03;;;;;;;23.40;15.30;;;;;;;3.95;nan;100046.28;5044386;27;97534;-73
2023/11/19 05:49:29;;;;;;;21.53;14.17;;;;;;;3.96;nan;100039.38;5042524;27;97422;-73
2023/11/19 05:51:55;;;;;;;23.47;15.53;;;;;;;3.85;nan;100024.75;5042432;27;96823;-73
2023/11/19 05:54:21;;;;;;;22.67;14.83;;;;;;;3.93;nan;100023.81;5021656;27;101189;-73
2023/11/19 05:56:50;;;;;;;19.63;14.13;;;;;;;3.85;nan;100014.38;5043010;27;97388;-76
2023/11/19 05:59:17;;;;;;;22.00;14.93;;;;;;;3.70;nan;99983.41;5037529;27;96772;-73
2023/11/19 06:01:46;;;;;;;22.60;14.00;;;;;;;3.81;nan;100009.22;5030812;27;97317;-73
2023/11/19 06:04:11;;;;;;;24.87;15.17;;;;;;;3.65;nan;99984.31;5014977;27;101220;-77
2023/11/19 06:06:37;;;;;;;21.67;15.23;;;;;;;3.87;nan;99998.78;5033893;27;100832;-73
2023/11/19 06:09:04;;;;;;;22.17;14.90;;;;;;;3.81;nan;99984.13;5048995;27;96902;-73
2023/11/19 06:11:29;;;;;;;22.70;14.93;;;;;;;3.70;nan;99980.78;5046803;27;97257;-73
2023/11/19 06:13:56;;;;;;;21.77;13.53;;;;;;;3.88;nan;99989.25;5037326;27;97419;-73
2023/11/19 06:16:21;;;;;;;18.30;13.27;;;;;;;3.84;nan;99989.28;5024753;27;97914;-72
2023/11/19 06:18:47;;;;;;;20.20;13.93;;;;;;;3.91;nan;100000.44;5020795;27;97414;-75
2023/11/19 06:21:12;;;;;;;21.47;14.30;;;;;;;4.03;nan;99995.09;5023837;27;96964;-75
2023/11/19 06:23:38;;;;;;;22.47;14.33;;;;;;;3.92;nan;99963.19;5039600;27;97451;-73
2023/11/19 06:26:05;;;;;;;20.57;14.40;;;;;;;4.05;nan;99980.38;5036465;27;97428;-73
2023/11/19 06:28:31;;;;;;;21.43;14.27;;;;;;;4.07;nan;99977.72;5018916;27;97306;-73
2023/11/19 06:30:57;;;;;;;23.23;14.50;;;;;;;3.98;nan;99949.28;5038151;27;96889;-73
2023/11/19 06:33:24;;;;;;;22.63;15.27;;;;;;;3.94;nan;99958.88;5052567;27;98307;-73
2023/11/19 06:35:49;;;;;;;20.40;14.93;;;;;;;3.79;nan;99923.56;5007647;27;100990;-80
2023/11/19 06:38:15;;;;;;;22.90;14.87;;;;;;;3.90;nan;99951.13;5046365;27;96712;-73
2023/11/19 06:40:41;;;;;;;22.83;14.17;;;;;;;3.86;nan;99939.91;5022320;27;96764;-73
2023/11/19 06:43:08;;;;;;;19.57;13.53;;;;;;;3.94;nan;99940.69;5013514;28;101533;-73
2023/11/19 06:45:33;;;;;;;17.33;12.23;;;;;;;3.94;nan;99935.50;5030161;27;97322;-73
2023/11/19 06:48:05;;;;;;;15.67;12.07;;;;;;;4.08;nan;99943.97;5018579;27;96713;-73
2023/11/19 06:50:33;;;;;;;22.58;13.88;;;;;;;4.13;nan;99922.25;5035550;27;96770;-73
2023/11/19 06:52:59;;;;;;;18.73;12.37;;;;;;;3.86;nan;99882.78;5015581;28;99398;-74
2023/11/19 06:55:25;;;;;;;17.20;11.80;;;;;;;4.18;nan;99918.69;5035817;27;97409;-73
2023/11/19 06:57:51;;;;;;;16.53;11.23;;;;;;;4.23;nan;99910.84;5049307;27;96660;-73
2023/11/19 07:00:18;;;;;;;16.37;10.63;;;;;;;4.17;nan;99906.59;5024417;28;96861;-73
2023/11/19 07:02:44;;;;;;;16.13;10.87;;;;;;;4.08;nan;99891.16;5029340;27;97425;-74
2023/11/19 07:05:12;;;;;;;15.43;10.27;;;;;;;4.15;nan;99897.97;5014627;28;97351;-73
2023/11/19 07:07:37;;;;;;;13.73;10.20;;;;;;;4.13;nan;99891.94;5007958;28;97399;-78
2023/11/19 07:10:04;;;;;;;15.20;10.40;;;;;;;4.14;nan;99892.81;5047324;27;96773;-79
2023/11/19 07:12:30;;;;;;;16.03;10.27;;;;;;;4.23;nan;99896.13;5028631;27;97530;-74
2023/11/19 07:14:55;;;;;;;16.43;9.67;;;;;;;4.28;nan;99886.50;5036811;27;97365;-73
2023/11/19 07:17:21;;;;;;;15.93;10.73;;;;;;;4.21;nan;99865.84;5028852;27;96676;-74
2023/11/19 07:19:49;;;;;;;15.33;11.03;;;;;;;4.39;nan;99877.69;5024260;27;96742;-73
2023/11/19 07:22:15;;;;;;;15.47;10.40;;;;;;;4.34;nan;99862.19;5022442;27;101208;-73
2023/11/19 07:24:41;;;;;;;18.33;10.90;;;;;;;4.48;nan;99883.59;5039048;27;98505;-73
2023/11/19 07:27:08;;;;;;;15.63;10.60;;;;;;;4.31;nan;99877.81;5012370;27;96742;-73
2023/11/19 07:29:37;;;;;;;12.43;9.37;;;;;;;4.28;nan;99875.28;5027459;27;96840;-73
2023/11/19 07:32:03;;;;;;;12.47;9.23;;;;;;;4.34;nan;99866.53;5032236;27;97542;-77
2023/11/19 07:34:29;;;;;;;13.57;10.07;;;;;;;4.34;nan;99876.91;5043946;27;100805;-73
2023/11/19 07:36:57;;;;;;;14.57;10.37;;;;;;;4.24;nan;99879.63;5033454;27;98314;-76
2023/11/19 07:39:22;;;;;;;13.77;10.27;;;;;;;4.04;nan;99859.16;5023526;27;97615;-72
2023/11/19 07:41:48;;;;;;;13.97;9.97;;;;;;;4.03;nan;99853.97;5033670;27;98558;-78
2023/11/19 07:44:14;;;;;;;16.57;11.30;;;;;;;4.23;nan;99871.88;5013403;27;101404;-73
2023/11/19 07:46:42;;;;;;;14.80;10.40;;;;;;;4.35;nan;99863.03;5013579;28;97372;-73
2023/11/19 07:49:07;;;;;;;16.27;10.90;;;;;;;4.24;nan;99843.25;5021455;27;96766;-72
2023/11/19 07:51:33;;;;;;;15.70;10.80;;;;;;;4.21;nan;99835.50;5037790;27;97884;-77
2023/11/19 07:53:58;;;;;;;18.83;11.10;;;;;;;4.30;nan;99850.09;5014505;27;101005;-73
2023/11/19 07:56:24;;;;;;;16.97;10.47;;;;;;;4.27;nan;99848.41;4995687;28;97540;-73
2023/11/19 07:58:49;;;;;;;14.33;10.50;;;;;;;4.04;nan;99803.75;5026407;27;97065;-81
2023/11/19 08:01:15;;;;;;;15.00;10.07;;;;;;;4.30;nan;99842.31;5039522;27;97885;-72
2023/11/19 08:03:41;;;;;;;15.87;10.13;;;;;;;4.35;nan;99839.66;5021889;27;99156;-72
2023/11/19 08:06:07;;;;;;;17.57;11.67;;;;;;;4.36;nan;99837.00;5035731;27;98454;-71
2023/11/19 08:08:33;;;;;;;14.07;9.60;;;;;;;4.42;nan;99825.66;5023474;27;97685;-75
2023/11/19 08:10:58;;;;;;;16.67;10.60;;;;;;;4.43;nan;99822.19;5038011;27;97611;-81
2023/11/19 08:13:25;;;;;;;16.00;10.60;;;;;;;4.43;nan;99822.19;5038397;27;97816;-72
2023/11/19 08:15:50;;;;;;;14.10;9.53;;;;;;;4.47;nan;99819.50;5040901;27;96803;-74
2023/11/19 08:18:16;;;;;;;19.53;12.07;;;;;;;4.45;nan;99823.88;5027172;27;98556;-73
2023/11/19 08:20:43;;;;;;;15.77;10.63;;;;;;;4.37;nan;99794.56;5034268;27;97386;-71
2023/11/19 08:23:09;;;;;;;19.20;11.73;;;;;;;4.53;nan;99802.94;5014960;27;100997;-72
2023/11/19 08:25:34;;;;;;;17.07;10.63;;;;;;;4.35;nan;99803.25;5021241;27;97728;-72
2023/11/19 08:28:00;;;;;;;16.17;11.17;;;;;;;4.17;nan;99776.69;5047437;27;96856;-74
2023/11/19 08:30:27;;;;;;;17.13;12.63;;;;;;;4.29;nan;99793.81;5048873;27;97637;-74
2023/11/19 08:32:52;;;;;;;18.50;12.33;;;;;;;4.27;nan;99770.44;5041299;27;97366;-75
2023/11/19 08:35:18;;;;;;;16.53;11.00;;;;;;;4.29;nan;99791.22;5006723;28;96742;-73
2023/11/19 08:37:45;;;;;;;17.33;10.80;;;;;;;4.17;nan;99776.69;5027928;27;97130;-77
2023/11/19 08:40:12;;;;;;;17.37;11.13;;;;;;;4.29;nan;99763.50;5010571;27;101104;-76
2023/11/19 08:42:39;;;;;;;15.77;10.83;;;;;;;4.23;nan;99757.56;5025845;27;97610;-73
2023/11/19 08:45:05;;;;;;;15.23;10.90;;;;;;;4.13;nan;99730.88;5026978;27;97174;-73
2023/11/19 08:47:30;;;;;;;15.00;10.47;;;;;;;4.29;nan;99747.06;5023402;27;97155;-73
2023/11/19 08:49:56;;;;;;;16.33;11.83;;;;;;;4.39;nan;99739.94;5036845;27;97538;-73
2023/11/19 08:52:22;;;;;;;16.87;11.73;;;;;;;4.44;nan;99730.31;5040124;27;101067;-73
2023/11/19 08:54:47;;;;;;;20.30;12.87;;;;;;;4.42;nan;99729.50;5014859;27;96707;-78
2023/11/19 08:57:13;;;;;;;16.03;11.20;;;;;;;4.34;nan;99718.41;5061377;27;97158;-73
2023/11/19 08:59:38;;;;;;;18.83;11.43;;;;;;;4.32;nan;99718.41;5052501;27;98397;-73
2023/11/19 09:02:08;;;;;;;18.53;12.47;;;;;;;4.35;nan;99726.16;5007474;28;100843;-75
2023/11/19 09:04:33;;;;;;;17.77;11.43;;;;;;;4.43;nan;99731.22;5000410;27;97165;-73
2023/11/19 09:06:59;;;;;;;16.13;10.80;;;;;;;4.40;nan;99713.94;5019085;27;97316;-76
2023/11/19 09:09:25;;;;;;;16.10;11.67;;;;;;;4.45;nan;99712.13;5053136;27;97404;-75
2023/11/19 09:11:51;;;;;;;16.80;10.37;;;;;;;4.34;nan;99693.25;5005355;28;97897;-74
2023/11/19 09:14:18;;;;;;;16.70;10.87;;;;;;;4.26;nan;99685.59;4998619;28;96816;-75
2023/11/19 09:16:43;;;;;;;16.87;10.43;;;;;;;4.43;nan;99726.88;5033592;27;96888;-72
2023/11/19 09:19:09;;;;;;;16.90;10.50;;;;;;;4.37;nan;99719.19;5006291;27;100057;-80
2023/11/19 09:21:37;;;;;;;19.80;11.27;;;;;;;4.30;nan;99713.25;5022009;27;97293;-76
2023/11/19 09:24:03;;;;;;;16.17;11.57;;;;;;;4.30;nan;99702.00;5035747;27;96765;-75
2023/11/19 09:26:28;;;;;;;15.83;10.83;;;;;;;4.23;nan;99671.81;5052127;27;96894;-74
2023/11/19 09:28:54;;;;;;;15.97;11.47;;;;;;;4.50;nan;99688.63;5028555;27;98108;-72
2023/11/19 09:31:19;;;;;;;17.70;11.57;;;;;;;4.47;nan;99689.53;5034830;27;97401;-75
2023/11/19 09:33:45;;;;;;;17.00;11.47;;;;;;;4.41;nan;99699.19;5058226;27;97157;-73
2023/11/19 09:36:14;;;;;;;17.27;11.40;;;;;;;4.37;nan;99684.56;5018531;28;96910;-73
2023/11/19 09:38:40;;;;;;;16.33;11.07;;;;;;;4.32;nan;99685.47;5019634;27;97460;-73
2023/11/19 09:41:09;;;;;;;19.93;12.27;;;;;;;4.40;nan;99685.34;5026421;27;97822;-77
2023/11/19 09:43:39;;;;;;;16.13;10.43;;;;;;;4.50;nan;99689.47;5030339;27;96737;-72
2023/11/19 09:46:06;;;;;;;16.93;11.50;;;;;;;4.51;nan;99677.34;5002242;28;97326;-74
2023/11/19 09:48:37;;;;;;;16.93;11.13;;;;;;;4.57;nan;99678.94;5024039;27;101291;-71
2023/11/19 09:51:03;;;;;;;15.30;10.37;;;;;;;4.63;nan;99664.13;5051050;27;97924;-73
2023/11/19 09:53:29;;;;;;;15.07;10.30;;;;;;;4.62;nan;99653.72;5002811;27;97312;-75
2023/11/19 09:55:55;;;;;;;15.93;10.43;;;;;;;4.64;nan;99660.63;5029845;27;96795;-80
2023/11/19 09:58:21;;;;;;;14.80;9.83;;;;;;;4.66;nan;99647.59;5007237;27;100841;-77
2023/11/19 10:00:47;;;;;;;13.17;8.93;;;;;;;4.54;nan;99622.72;4996707;28;101625;-79
2023/11/19 10:03:13;;;;;;;17.07;10.87;;;;;;;4.63;nan;99634.66;5023425;27;97232;-72
2023/11/19 10:05:38;;;;;;;14.03;9.90;;;;;;;4.72;nan;99621.47;5012754;27;96749;-74
2023/11/19 10:08:05;;;;;;;15.67;9.73;;;;;;;4.65;nan;99606.88;5010474;27;101062;-72
2023/11/19 10:10:30;;;;;;;13.40;7.80;;;;;;;4.69;nan;99605.94;5007088;27;100488;-73
2023/11/19 10:12:56;;;;;;;10.13;6.90;;;;;;;4.65;nan;99606.88;5011108;27;96916;-73
2023/11/19 10:15:24;;;;;;;6.63;4.33;;;;;;;4.71;nan;99614.53;5029550;27;97274;-72
2023/11/19 10:17:50;;;;;;;8.30;4.33;;;;;;;4.76;nan;99594.50;4998490;27;101346;-77
2023/11/19 10:20:16;;;;;;;4.43;3.77;;;;;;;4.85;nan;99586.50;5013524;27;101316;-72
2023/11/19 10:22:41;;;;;;;4.87;2.83;;;;;;;4.87;nan;99597.72;5026204;27;97311;-72
2023/11/19 10:25:27;;;;;;;4.90;3.43;;;;;;;4.84;nan;99581.34;5022134;27;97935;-81
2023/11/19 10:27:54;;;;;;;5.83;3.70;;;;;;;4.93;nan;99560.31;5018285;28;97941;-82
2023/11/19 10:30:27;;;;;;;5.57;3.67;;;;;;;4.92;nan;99553.41;5034184;27;98657;-84
2023/11/19 10:33:10;;;;;;;5.03;3.37;;;;;;;5.01;nan;99549.75;4999309;27;96739;-79
2023/11/19 10:35:56;;;;;;;6.47;3.73;;;;;;;5.07;nan;99545.25;5015250;27;96890;-79
2023/11/19 10:38:22;;;;;;;4.70;3.50;;;;;;;5.07;nan;99528.78;5014708;27;99561;-81
2023/11/19 10:40:49;;;;;;;5.33;3.87;;;;;;;5.14;nan;99539.00;4999561;27;101416;-80
2023/11/19 10:43:14;;;;;;;6.10;2.90;;;;;;;4.98;nan;99511.66;5034766;27;97930;-79
2023/11/19 10:45:40;;;;;;;5.83;3.63;;;;;;;5.06;nan;99535.75;5019050;27;97363;-80
2023/11/19 10:48:07;;;;;;;4.80;3.50;;;;;;;5.04;nan;99537.50;5004347;27;100929;-79
2023/11/19 10:50:36;;;;;;;5.20;3.93;;;;;;;5.18;nan;99534.59;5035787;27;97788;-78
2023/11/19 10:53:03;;;;;;;6.93;4.70;;;;;;;5.22;nan;99529.25;5008370;28;97262;-79
2023/11/19 10:55:30;;;;;;;5.40;3.87;;;;;;;5.26;nan;99524.81;5032025;27;97680;-80
2023/11/19 10:58:05;;;;;;;5.90;3.77;;;;;;;5.21;nan;99531.91;5023451;27;101128;-81
2023/11/19 11:00:37;;;;;;;4.97;3.67;;;;;;;5.29;nan;99545.56;5006736;27;100874;-81
2023/11/19 11:03:10;;;;;;;6.73;3.30;;;;;;;5.20;nan;99519.78;5012304;27;96821;-82
2023/11/19 11:05:37;;;;;;;6.07;4.00;;;;;;;5.31;nan;99522.13;5010695;27;97233;-81
2023/11/19 11:08:05;;;;;;;6.57;4.20;;;;;;;5.30;nan;99513.47;5013959;27;97655;-81
2023/11/19 11:10:33;;;;;;;8.80;4.10;;;;;;;5.15;nan;99483.47;5027499;27;97812;-84
2023/11/19 11:12:59;;;;;;;6.10;3.40;;;;;;;5.05;nan;99479.38;4999176;27;97347;-81
2023/11/19 11:15:28;;;;;;;6.37;3.30;;;;;;;5.18;nan;99501.63;5017217;27;97272;-85
2023/11/19 11:17:57;;;;;;;5.77;3.80;;;;;;;5.18;nan;99505.97;5035135;27;100678;-82
2023/11/19 11:20:24;;;;;;;7.77;3.40;;;;;;;5.12;nan;99475.75;5022139;27;97466;-82
2023/11/19 11:23:03;;;;;;;3.90;3.37;;;;;;;5.17;nan;99486.03;5028266;27;97132;-86
2023/11/19 11:25:42;;;;;;;5.70;3.70;;;;;;;5.20;nan;99475.53;5009262;27;97095;-82
2023/11/19 11:28:31;;;;;;;4.97;3.50;;;;;;;5.12;nan;99444.53;5010650;27;97610;-82
2023/11/19 11:31:12;;;;;;;5.20;3.83;;;;;;;5.21;nan;99464.25;5045745;27;98477;-81
2023/11/19 11:33:44;;;;;;;7.27;3.63;;;;;;;5.22;nan;99453.78;5030423;27;96865;-81
2023/11/19 11:36:21;;;;;;;7.30;3.77;;;;;;;5.36;nan;99473.41;5028814;27;97533;-82
2023/11/19 11:38:48;;;;;;;6.77;4.53;;;;;;;5.51;nan;99474.75;5023633;27;101413;-84